Time;durP1;ratioP1;P1;durP2;ratioP2;P2;SDS_P1;SDS_P2;PMS_P1;PMS_P2;Temp;Humidity;BMP_temperature;BMP_pressure;BME280_temperature;BME280_humidity;BME280_pressure;Samples;Min_cycle;Max_cycle;Signal;HPM_P1;HPM_P2
2021/04/09 00:01:24;;;;;;;102.15;43.15;;;-2.00;99.90;;;;;;5072710;28;20054;-84
2021/04/09 00:03:50;;;;;;;103.90;43.63;;;-2.00;99.90;;;;;;5072578;28;20381;-84
2021/04/09 00:06:15;;;;;;;90.00;40.83;;;-2.10;99.90;;;;;;5054517;28;20037;-84
2021/04/09 00:08:41;;;;;;;97.18;42.05;;;-2.10;99.90;;;;;;5072504;28;20095;-85
2021/04/09 00:11:07;;;;;;;98.63;42.92;;;-2.10;99.90;;;;;;5054735;28;20016;-85
2021/04/09 00:13:33;;;;;;;111.00;45.08;;;-2.20;99.90;;;;;;5072404;28;20024;-84
2021/04/09 00:15:58;;;;;;;101.80;43.42;;;-2.20;99.90;;;;;;5074060;28;20025;-84
2021/04/09 00:18:24;;;;;;;104.38;45.50;;;-2.30;99.90;;;;;;5076419;28;20028;-84
2021/04/09 00:20:49;;;;;;;103.28;44.72;;;-2.30;99.90;;;;;;5076528;28;20103;-84
2021/04/09 00:23:15;;;;;;;108.05;45.08;;;-2.30;99.90;;;;;;5075018;28;20382;-84
2021/04/09 00:25:40;;;;;;;112.15;45.40;;;-2.30;99.90;;;;;;5074961;28;20032;-83
2021/04/09 00:28:07;;;;;;;100.95;45.47;;;-2.40;99.90;;;;;;5058212;28;20029;-83
2021/04/09 00:30:32;;;;;;;100.85;43.95;;;-2.40;99.90;;;;;;5076309;28;20024;-83
2021/04/09 00:32:58;;;;;;;110.65;42.42;;;-2.40;99.90;;;;;;5076653;28;20024;-83
2021/04/09 00:35:24;;;;;;;115.85;44.85;;;-2.40;99.90;;;;;;5074781;28;20024;-83
2021/04/09 00:37:51;;;;;;;100.65;44.72;;;-2.50;99.90;;;;;;5076285;28;20021;-83
2021/04/09 00:40:17;;;;;;;100.45;41.08;;;-2.40;99.90;;;;;;5058254;28;20091;-84
2021/04/09 00:42:43;;;;;;;100.32;40.42;;;-2.50;99.90;;;;;;5058254;28;20021;-83
2021/04/09 00:45:09;;;;;;;89.53;38.33;;;-2.50;99.90;;;;;;5058140;28;20036;-83
2021/04/09 00:47:35;;;;;;;98.45;40.15;;;-2.50;99.90;;;;;;5075789;28;20025;-84
2021/04/09 00:50:02;;;;;;;98.78;37.70;;;-2.60;99.90;;;;;;5076089;28;20090;-84
2021/04/09 00:52:29;;;;;;;94.63;38.20;;;-2.70;99.90;;;;;;5075846;28;20093;-84
2021/04/09 00:54:56;;;;;;;88.63;37.72;;;-2.80;99.90;;;;;;5074354;28;20478;-84
2021/04/09 00:57:22;;;;;;;96.00;39.30;;;-2.70;99.90;;;;;;5075617;28;20016;-84
2021/04/09 00:59:48;;;;;;;90.13;41.05;;;-2.70;99.90;;;;;;5057658;28;20386;-84
2021/04/09 01:02:13;;;;;;;87.03;39.00;;;-2.80;99.90;;;;;;5075678;28;20032;-84
2021/04/09 01:04:39;;;;;;;91.15;41.05;;;-2.80;99.90;;;;;;5075712;28;20025;-84
2021/04/09 01:07:05;;;;;;;97.00;39.60;;;-2.80;99.90;;;;;;5074362;28;20490;-84
2021/04/09 01:09:32;;;;;;;95.53;41.00;;;-2.80;99.90;;;;;;5074309;28;20378;-83
2021/04/09 01:11:58;;;;;;;95.18;41.03;;;-2.80;99.90;;;;;;5075788;28;20063;-84
2021/04/09 01:14:24;;;;;;;98.05;40.42;;;-2.90;99.90;;;;;;5073896;28;20432;-84
2021/04/09 01:17:01;;;;;;;83.80;37.65;;;-2.90;99.90;;;;;;5057429;28;20021;-84
2021/04/09 01:19:46;;;;;;;84.43;38.42;;;-2.90;99.90;;;;;;5075244;28;20359;-83
2021/04/09 01:22:12;;;;;;;86.13;38.20;;;-2.90;99.90;;;;;;5057424;28;20481;-84
2021/04/09 01:25:09;;;;;;;93.93;39.70;;;-3.00;99.90;;;;;;5057411;28;20028;-84
2021/04/09 01:27:59;;;;;;;85.93;38.92;;;-3.00;99.90;;;;;;5074158;28;20017;-83
2021/04/09 01:30:34;;;;;;;77.53;36.65;;;-3.10;99.90;;;;;;5075249;28;20021;-83
2021/04/09 01:33:04;;;;;;;99.47;39.25;;;-3.10;99.90;;;;;;5075245;28;20017;-83
2021/04/09 01:35:31;;;;;;;90.72;36.17;;;-3.10;99.90;;;;;;5056912;28;20123;-83
2021/04/09 01:38:04;;;;;;;74.78;32.17;;;-3.20;99.90;;;;;;5057005;28;20016;-83
2021/04/09 01:40:34;;;;;;;84.55;34.13;;;-3.20;99.90;;;;;;5074830;28;20020;-84
2021/04/09 01:43:05;;;;;;;97.85;37.13;;;-3.20;99.90;;;;;;5056879;28;20123;-84
2021/04/09 01:45:32;;;;;;;87.57;38.65;;;-3.30;99.90;;;;;;5074902;28;20068;-84
2021/04/09 01:47:59;;;;;;;87.32;40.47;;;-3.30;99.90;;;;;;5056990;28;20389;-84
2021/04/09 01:50:30;;;;;;;83.47;39.72;;;-3.30;99.90;;;;;;5074792;28;20021;-84
2021/04/09 01:52:56;;;;;;;86.18;36.08;;;-3.30;99.90;;;;;;5074790;28;20024;-84
2021/04/09 01:55:23;;;;;;;74.15;37.25;;;-3.30;99.90;;;;;;5056768;28;20166;-84
2021/04/09 01:57:50;;;;;;;83.90;35.85;;;-3.40;99.90;;;;;;5056475;28;20082;-84
2021/04/09 02:00:24;;;;;;;81.03;34.40;;;-3.40;99.90;;;;;;5073488;28;20059;-84
2021/04/09 02:02:52;;;;;;;80.32;32.40;;;-3.40;99.90;;;;;;5074675;28;20028;-83
2021/04/09 02:05:20;;;;;;;76.72;34.00;;;-3.40;99.90;;;;;;5056459;28;20031;-83
2021/04/09 02:07:47;;;;;;;77.43;34.35;;;-3.40;99.90;;;;;;5074471;28;20017;-83
2021/04/09 02:10:14;;;;;;;74.32;34.42;;;-3.40;99.90;;;;;;5056422;28;20056;-83
2021/04/09 02:12:42;;;;;;;75.78;31.70;;;-3.40;99.90;;;;;;5055990;28;20033;-82
2021/04/09 02:15:14;;;;;;;73.05;33.22;;;-3.40;99.90;;;;;;5056435;28;20017;-83
2021/04/09 02:17:40;;;;;;;75.45;32.38;;;-3.50;99.90;;;;;;5073987;28;20467;-83
2021/04/09 02:20:11;;;;;;;69.95;33.30;;;-3.50;99.90;;;;;;5056208;28;20071;-83
2021/04/09 02:22:39;;;;;;;67.10;31.30;;;-3.50;99.90;;;;;;5055157;28;20478;-83
2021/04/09 02:25:06;;;;;;;66.65;31.63;;;-3.60;99.90;;;;;;5054927;28;20048;-83
2021/04/09 02:27:32;;;;;;;71.47;33.30;;;-3.60;99.90;;;;;;5073242;28;20024;-83
2021/04/09 02:29:58;;;;;;;78.32;33.05;;;-3.60;99.90;;;;;;5054810;28;20417;-83
2021/04/09 02:32:24;;;;;;;80.75;32.53;;;-3.60;99.90;;;;;;5072705;28;20026;-83
2021/04/09 02:34:50;;;;;;;73.78;33.00;;;-3.70;99.90;;;;;;5072787;28;20107;-83
2021/04/09 02:37:18;;;;;;;86.50;32.42;;;-3.70;99.90;;;;;;5073516;28;20082;-84
2021/04/09 02:39:47;;;;;;;71.40;31.85;;;-3.70;99.90;;;;;;5055887;28;20021;-83
2021/04/09 02:42:13;;;;;;;63.58;29.15;;;-3.70;99.90;;;;;;5055988;28;20027;-83
2021/04/09 02:44:40;;;;;;;64.45;29.33;;;-3.80;99.90;;;;;;5073413;28;20025;-83
2021/04/09 02:47:11;;;;;;;63.43;28.67;;;-3.80;99.90;;;;;;5073725;28;20548;-83
2021/04/09 02:49:46;;;;;;;62.87;28.80;;;-3.80;99.90;;;;;;5055599;28;20024;-83
2021/04/09 02:52:26;;;;;;;57.78;29.00;;;-3.80;99.90;;;;;;5055667;28;20177;-83
2021/04/09 02:54:55;;;;;;;69.50;29.77;;;-3.90;99.90;;;;;;5055288;28;20028;-83
2021/04/09 02:57:23;;;;;;;64.77;28.43;;;-3.90;99.90;;;;;;5055407;28;20025;-83
2021/04/09 02:59:54;;;;;;;65.32;27.35;;;-3.90;99.90;;;;;;5055307;28;20025;-83
2021/04/09 03:02:22;;;;;;;65.87;29.03;;;-4.00;99.90;;;;;;5073348;28;20028;-82
2021/04/09 03:04:48;;;;;;;68.17;28.00;;;-4.00;99.90;;;;;;5055505;28;20055;-83
2021/04/09 03:07:15;;;;;;;65.95;28.25;;;-4.00;99.90;;;;;;5055531;28;20071;-84
2021/04/09 03:09:40;;;;;;;66.65;31.15;;;-4.00;99.90;;;;;;5055158;28;20032;-83
2021/04/09 03:12:17;;;;;;;82.05;31.38;;;-4.00;99.90;;;;;;5073193;28;20497;-83
2021/04/09 03:14:44;;;;;;;69.90;30.38;;;-4.10;99.90;;;;;;5055089;28;20020;-83
2021/04/09 03:17:39;;;;;;;59.53;27.20;;;-4.10;99.90;;;;;;5055223;28;20395;-82
2021/04/09 03:20:07;;;;;;;62.03;26.87;;;-4.10;99.90;;;;;;5054661;28;20069;-83
2021/04/09 03:22:33;;;;;;;73.20;30.40;;;-4.20;99.90;;;;;;5054912;28;20462;-83
2021/04/09 03:24:59;;;;;;;80.97;32.67;;;-4.20;99.90;;;;;;5071678;28;20086;-83
2021/04/09 03:27:24;;;;;;;78.37;32.40;;;-4.20;99.90;;;;;;5055186;28;20016;-83
2021/04/09 03:29:50;;;;;;;81.30;32.60;;;-4.20;99.90;;;;;;5071579;28;20017;-83
2021/04/09 03:32:17;;;;;;;71.73;31.10;;;-4.30;99.90;;;;;;5072955;28;20075;-83
2021/04/09 03:34:43;;;;;;;72.43;31.67;;;-4.30;99.90;;;;;;5072491;28;20024;-82
2021/04/09 03:37:09;;;;;;;84.33;32.60;;;-4.30;99.90;;;;;;5054884;28;20100;-82
2021/04/09 03:39:35;;;;;;;83.73;31.53;;;-4.30;99.90;;;;;;5054946;28;20140;-82
2021/04/09 03:42:04;;;;;;;84.50;33.40;;;-4.30;99.90;;;;;;5072907;28;20385;-83
2021/04/09 03:44:30;;;;;;;85.83;28.97;;;-4.40;99.90;;;;;;5054742;28;20025;-82
2021/04/09 03:46:56;;;;;;;79.87;30.57;;;-4.40;99.90;;;;;;5072596;28;20032;-82
2021/04/09 03:49:21;;;;;;;80.80;29.70;;;-4.40;99.90;;;;;;5072621;28;20386;-83
2021/04/09 03:51:47;;;;;;;68.43;28.90;;;-4.40;99.90;;;;;;5072123;28;20432;-82
2021/04/09 03:54:13;;;;;;;68.20;33.63;;;-4.40;99.90;;;;;;5054881;28;20024;-82
2021/04/09 03:56:39;;;;;;;76.23;32.00;;;-4.50;99.90;;;;;;5072760;28;20032;-82
2021/04/09 03:59:05;;;;;;;83.87;31.87;;;-4.50;99.90;;;;;;5054714;28;20035;-82
2021/04/09 04:01:31;;;;;;;76.50;29.70;;;-4.40;99.90;;;;;;5054589;28;20473;-82
2021/04/09 04:03:56;;;;;;;66.03;28.20;;;-4.50;99.90;;;;;;5054441;28;20056;-82
2021/04/09 04:06:22;;;;;;;68.40;28.60;;;-4.50;99.90;;;;;;5072621;28;20040;-82
2021/04/09 04:08:48;;;;;;;63.10;27.73;;;-4.50;99.90;;;;;;5070787;28;20037;-82
2021/04/09 04:11:14;;;;;;;65.70;26.27;;;-4.40;99.90;;;;;;5054615;28;20094;-82
2021/04/09 04:13:40;;;;;;;60.83;28.40;;;-4.40;99.90;;;;;;5054416;28;20024;-82
2021/04/09 04:16:06;;;;;;;68.17;29.40;;;-4.40;99.90;;;;;;5071132;28;20047;-82
2021/04/09 04:18:32;;;;;;;90.40;35.83;;;-4.40;99.90;;;;;;5072536;28;20036;-82
2021/04/09 04:20:57;;;;;;;120.33;48.20;;;-4.40;99.90;;;;;;5071004;28;20516;-82
2021/04/09 04:23:23;;;;;;;99.63;39.80;;;-4.40;99.90;;;;;;5072484;28;20051;-82
2021/04/09 04:25:49;;;;;;;105.67;41.20;;;-4.40;99.90;;;;;;5072155;28;20036;-82
2021/04/09 04:28:14;;;;;;;94.17;38.47;;;-4.40;99.90;;;;;;5054184;28;20047;-82
2021/04/09 04:30:41;;;;;;;70.57;28.67;;;-4.40;99.90;;;;;;5072308;28;20072;-83
2021/04/09 04:33:07;;;;;;;65.28;27.25;;;-4.30;99.90;;;;;;5054316;28;20043;-82
2021/04/09 04:35:32;;;;;;;76.20;31.53;;;-4.30;99.90;;;;;;5054257;28;20071;-84
2021/04/09 04:38:00;;;;;;;103.78;41.28;;;-4.20;99.90;;;;;;5054194;28;20020;-83
2021/04/09 04:40:26;;;;;;;85.13;36.73;;;-4.20;99.90;;;;;;5071982;28;20140;-83
2021/04/09 04:42:52;;;;;;;155.83;57.07;;;-4.10;99.90;;;;;;5056022;28;20620;-82
2021/04/09 04:45:17;;;;;;;166.60;61.13;;;-4.10;99.90;;;;;;5061058;28;20064;-82
2021/04/09 04:47:44;;;;;;;176.90;69.20;;;-4.10;99.90;;;;;;5074004;28;20025;-82
2021/04/09 04:50:10;;;;;;;180.88;69.35;;;-4.00;99.90;;;;;;5074366;28;20031;-82
2021/04/09 04:52:35;;;;;;;150.87;63.60;;;-3.90;99.90;;;;;;5071266;28;20020;-82
2021/04/09 04:55:02;;;;;;;177.20;64.53;;;-3.90;99.90;;;;;;5053288;28;20055;-83
2021/04/09 04:57:27;;;;;;;126.70;47.83;;;-3.80;99.90;;;;;;5064376;28;20500;-82
2021/04/09 04:59:53;;;;;;;130.13;51.50;;;-3.70;99.90;;;;;;5060654;28;20029;-83
2021/04/09 05:02:19;;;;;;;138.45;48.60;;;-3.60;99.90;;;;;;5072255;28;20029;-83
2021/04/09 05:04:44;;;;;;;111.20;42.72;;;-3.60;99.90;;;;;;5075240;28;20382;-84
2021/04/09 05:07:10;;;;;;;117.40;44.13;;;-3.50;99.90;;;;;;5075667;28;20129;-83
2021/04/09 05:09:36;;;;;;;121.65;46.70;;;-3.40;99.90;;;;;;5057340;28;20111;-83
2021/04/09 05:12:01;;;;;;;125.07;44.20;;;-3.30;99.90;;;;;;5075546;28;20024;-83
2021/04/09 05:14:27;;;;;;;123.03;46.97;;;-3.10;99.90;;;;;;5057469;28;20481;-83
2021/04/09 05:16:53;;;;;;;105.80;40.92;;;-3.00;99.90;;;;;;5075462;28;20066;-85
2021/04/09 05:19:18;;;;;;;95.40;38.45;;;-2.90;99.90;;;;;;5075426;28;20024;-85
2021/04/09 05:21:44;;;;;;;119.07;43.40;;;-2.70;99.90;;;;;;5075260;28;20036;-84
2021/04/09 05:24:10;;;;;;;109.03;45.20;;;-2.60;99.90;;;;;;5057225;28;20024;-85
2021/04/09 05:26:36;;;;;;;122.80;46.70;;;-2.40;99.90;;;;;;5057361;28;20029;-84
2021/04/09 05:29:01;;;;;;;139.88;49.45;;;-2.30;99.90;;;;;;5075228;28;20166;-84
2021/04/09 05:31:27;;;;;;;188.45;66.28;;;-2.10;99.90;;;;;;5075255;28;20070;-84
2021/04/09 05:33:54;;;;;;;236.93;85.78;;;-2.00;99.90;;;;;;5057079;28;20017;-83
2021/04/09 05:36:20;;;;;;;239.00;95.47;;;-1.90;99.90;;;;;;5056790;28;20021;-84
2021/04/09 05:38:46;;;;;;;223.13;88.72;;;-1.80;99.90;;;;;;5056926;28;20067;-84
2021/04/09 05:41:11;;;;;;;161.43;64.97;;;-1.60;99.90;;;;;;5074830;28;20041;-84
2021/04/09 05:43:37;;;;;;;160.40;60.53;;;-1.40;99.90;;;;;;5076336;28;20067;-85
2021/04/09 05:46:03;;;;;;;266.85;98.20;;;-1.20;99.90;;;;;;5070061;28;20024;-85
2021/04/09 05:48:29;;;;;;;268.63;90.15;;;-1.10;99.90;;;;;;5067960;28;20027;-84
2021/04/09 05:50:55;;;;;;;141.10;50.95;;;-0.90;99.90;;;;;;5093526;28;20039;-85
2021/04/09 05:53:20;;;;;;;84.78;34.80;;;-0.70;99.90;;;;;;5065389;28;20437;-86
2021/04/09 05:55:46;;;;;;;76.97;29.70;;;-0.50;99.90;;;;;;5059906;28;20033;-84
2021/04/09 05:58:12;;;;;;;67.15;28.17;;;-0.30;99.90;;;;;;5074978;28;20021;-85
2021/04/09 06:00:38;;;;;;;67.85;25.90;;;-0.10;99.90;;;;;;5062210;28;20070;-83
2021/04/09 06:03:04;;;;;;;65.63;25.50;;;0.10;99.90;;;;;;5076385;28;20016;-84
2021/04/09 06:05:30;;;;;;;100.15;31.15;;;0.20;99.90;;;;;;5067521;28;20054;-85
2021/04/09 06:07:56;;;;;;;50.70;18.98;;;0.40;99.90;;;;;;5067586;28;20008;-84
2021/04/09 06:10:22;;;;;;;35.13;15.35;;;0.60;99.90;;;;;;5069948;28;20039;-89
2021/04/09 06:12:49;;;;;;;69.45;25.30;;;0.70;98.80;;;;;;5066540;28;20017;-84
2021/04/09 06:15:15;;;;;;;32.90;14.52;;;1.00;96.40;;;;;;5062752;28;20158;-83
2021/04/09 06:17:41;;;;;;;36.63;17.20;;;1.10;92.30;;;;;;5063267;28;20078;-85
2021/04/09 06:20:07;;;;;;;27.65;13.98;;;1.30;89.60;;;;;;5056313;28;20394;-86
2021/04/09 06:22:33;;;;;;;75.15;27.70;;;1.40;84.60;;;;;;5074056;28;20386;-85
2021/04/09 06:24:59;;;;;;;27.88;12.40;;;1.60;84.30;;;;;;5090986;28;20036;-85
2021/04/09 06:27:25;;;;;;;20.48;10.18;;;1.80;84.50;;;;;;5093720;28;20028;-86
2021/04/09 06:29:50;;;;;;;29.52;13.50;;;2.00;79.50;;;;;;5069624;28;20027;-84
2021/04/09 06:32:16;;;;;;;27.27;11.80;;;2.20;79.30;;;;;;5093613;28;20020;-83
2021/04/09 06:34:42;;;;;;;25.45;11.55;;;2.30;78.10;;;;;;5066943;28;20384;-84
2021/04/09 06:37:07;;;;;;;20.42;11.10;;;2.50;74.70;;;;;;5066420;28;20111;-84
2021/04/09 06:39:33;;;;;;;26.90;12.95;;;2.70;73.30;;;;;;5093343;28;20168;-85
2021/04/09 06:41:59;;;;;;;17.40;8.40;;;2.90;70.70;;;;;;5093372;28;20027;-85
2021/04/09 06:44:24;;;;;;;19.00;8.85;;;3.00;69.00;;;;;;5049835;28;20127;-85
2021/04/09 06:46:50;;;;;;;23.02;9.60;;;3.10;68.20;;;;;;5075499;28;20499;-84
2021/04/09 06:49:15;;;;;;;25.80;12.23;;;3.30;66.50;;;;;;5075670;28;20024;-85
2021/04/09 06:51:45;;;;;;;11.07;7.68;;;3.40;65.00;;;;;;5093700;28;20032;-85
2021/04/09 06:54:14;;;;;;;16.77;8.02;;;3.50;61.30;;;;;;5093336;28;20020;-86
2021/04/09 06:56:42;;;;;;;27.15;14.35;;;3.60;60.60;;;;;;5093105;28;20369;-87
2021/04/09 06:59:13;;;;;;;27.63;11.23;;;3.80;60.40;;;;;;5093231;28;20020;-86
2021/04/09 07:01:41;;;;;;;9.10;5.43;;;4.00;60.70;;;;;;5058557;28;20073;-87
2021/04/09 07:04:08;;;;;;;10.75;5.95;;;4.00;57.90;;;;;;5059510;28;20013;-87
2021/04/09 07:06:33;;;;;;;14.73;7.45;;;4.10;57.70;;;;;;5075723;28;20028;-87
2021/04/09 07:08:59;;;;;;;20.40;4.93;;;4.20;57.30;;;;;;5080902;28;20028;-86
2021/04/09 07:11:28;;;;;;;9.55;6.00;;;4.30;56.10;;;;;;5080605;28;20027;-86
2021/04/09 07:13:54;;;;;;;8.68;5.03;;;4.40;55.80;;;;;;5061165;28;20043;-85
2021/04/09 07:16:20;;;;;;;12.73;8.48;;;4.50;55.50;;;;;;5083217;28;20016;-85
2021/04/09 07:18:57;;;;;;;41.35;16.08;;;4.50;55.00;;;;;;5086146;28;20066;-85
2021/04/09 07:21:30;;;;;;;20.08;8.35;;;4.50;54.30;;;;;;5060647;28;20119;-84
2021/04/09 07:24:16;;;;;;;13.23;6.60;;;4.70;55.60;;;;;;5074465;28;20107;-85
2021/04/09 07:26:50;;;;;;;12.70;5.97;;;4.90;55.40;;;;;;5069866;28;20043;-87
2021/04/09 07:29:30;;;;;;;12.38;5.22;;;4.90;54.30;;;;;;5072471;28;20020;-87
2021/04/09 07:31:57;;;;;;;10.65;6.38;;;4.80;53.00;;;;;;5072122;28;20035;-85
2021/04/09 07:34:22;;;;;;;10.20;5.72;;;4.80;53.30;;;;;;5058774;28;20143;-86
2021/04/09 07:36:55;;;;;;;11.75;5.95;;;4.80;53.10;;;;;;5057094;28;20050;-86
2021/04/09 07:39:34;;;;;;;;;;;4.90;53.40;;;;;;5051889;28;20066;-85
2021/04/09 07:42:11;;;;;;;10.50;5.95;;;5.00;53.20;;;;;;5051526;28;20274;-87
2021/04/09 07:44:38;;;;;;;6.43;4.75;;;5.10;53.70;;;;;;5050820;28;20028;-86
2021/04/09 07:47:08;;;;;;;9.20;5.30;;;5.20;53.10;;;;;;5055296;28;20082;-84
2021/04/09 07:49:34;;;;;;;8.35;5.40;;;5.20;52.30;;;;;;5085034;28;20025;-85
2021/04/09 07:52:14;;;;;;;6.43;4.85;;;5.40;53.60;;;;;;5067826;28;20020;-87
2021/04/09 07:54:40;;;;;;;10.32;6.95;;;5.60;52.80;;;;;;5075042;28;20031;-86
2021/04/09 07:57:06;;;;;;;20.73;8.07;;;5.70;52.90;;;;;;5065188;28;20388;-85
2021/04/09 07:59:40;;;;;;;9.85;5.95;;;5.90;52.90;;;;;;5063272;28;20032;-86
2021/04/09 08:02:07;;;;;;;12.63;5.70;;;5.90;52.60;;;;;;5092801;28;20028;-89
2021/04/09 08:04:41;;;;;;;9.88;5.13;;;6.00;51.90;;;;;;5062449;28;20027;-90
2021/04/09 08:07:08;;;;;;;11.63;5.68;;;6.10;51.60;;;;;;5060610;28;20043;-90
2021/04/09 08:09:50;;;;;;;9.55;5.80;;;6.10;51.30;;;;;;5065464;28;20025;-88
2021/04/09 08:12:30;;;;;;;7.63;4.95;;;6.20;50.90;;;;;;5090054;28;20030;-89
2021/04/09 08:15:10;;;;;;;10.95;5.70;;;6.20;50.70;;;;;;5089544;28;20017;-89
2021/04/09 08:17:36;;;;;;;10.75;4.85;;;6.20;50.80;;;;;;5071558;28;20535;-88
2021/04/09 08:20:12;;;;;;;12.95;6.07;;;6.40;50.80;;;;;;5068372;28;20035;-89
2021/04/09 08:22:38;;;;;;;11.35;6.57;;;6.20;48.80;;;;;;5083833;28;20016;-91
2021/04/09 08:25:05;;;;;;;15.85;7.32;;;6.10;48.90;;;;;;5091671;28;20035;-88
2021/04/09 08:27:31;;;;;;;6.07;4.93;;;6.10;48.50;;;;;;5092187;28;20028;-87
2021/04/09 08:29:58;;;;;;;8.55;5.35;;;6.40;50.10;;;;;;5092225;28;20028;-90
2021/04/09 08:32:24;;;;;;;18.10;9.50;;;6.40;49.60;;;;;;5073975;28;20024;-88
2021/04/09 08:34:50;;;;;;;19.98;9.38;;;6.40;49.10;;;;;;5091865;28;20031;-88
2021/04/09 08:37:16;;;;;;;10.93;5.70;;;6.40;48.70;;;;;;5072388;28;20024;-86
2021/04/09 08:39:42;;;;;;;6.93;4.97;;;6.60;49.10;;;;;;5069133;28;20534;-89
2021/04/09 08:42:08;;;;;;;8.20;5.00;;;6.80;49.70;;;;;;5069335;28;20024;-86
2021/04/09 08:44:34;;;;;;;7.32;3.72;;;6.80;48.80;;;;;;5095838;28;20024;-87
2021/04/09 08:47:00;;;;;;;4.78;3.72;;;6.90;48.90;;;;;;5095280;28;20035;-87
2021/04/09 08:49:28;;;;;;;10.63;5.70;;;7.20;48.20;;;;;;5062379;28;20020;-89
2021/04/09 08:51:59;;;;;;;8.23;4.57;;;7.10;47.30;;;;;;5073846;28;20043;-90
2021/04/09 08:54:29;;;;;;;6.32;3.92;;;7.10;47.30;;;;;;5058626;28;20027;-90
2021/04/09 08:56:56;;;;;;;11.15;4.75;;;7.20;48.10;;;;;;5077285;28;20024;-89
2021/04/09 08:59:48;;;;;;;9.73;6.82;;;7.40;47.80;;;;;;5077600;28;20492;-91
2021/04/09 09:02:19;;;;;;;7.75;4.43;;;7.50;47.70;;;;;;5073784;28;20056;-90
2021/04/09 09:05:03;;;;;;;6.10;4.32;;;7.30;46.70;;;;;;5047235;28;20029;-94
2021/04/09 09:07:53;;;;;;;6.28;4.15;;;7.30;46.50;;;;;;5069199;28;20122;-91
2021/04/09 09:10:22;;;;;;;4.15;3.28;;;7.40;46.70;;;;;;5046642;28;20036;-84
2021/04/09 09:13:03;;;;;;;5.03;3.47;;;7.40;46.10;;;;;;5058166;28;20031;-85
2021/04/09 09:15:44;;;;;;;7.03;4.57;;;7.50;46.40;;;;;;5058001;28;20032;-87
2021/04/09 09:18:19;;;;;;;9.82;4.10;;;7.30;45.80;;;;;;5074842;28;20377;-86
2021/04/09 09:21:20;;;;;;;8.38;4.30;;;7.60;46.40;;;;;;5057708;28;20024;-87
2021/04/09 09:23:54;;;;;;;16.70;4.93;;;7.60;45.90;;;;;;5075279;28;20095;-87
2021/04/09 09:26:38;;;;;;;10.82;5.13;;;7.80;46.50;;;;;;5073543;28;20493;-87
2021/04/09 09:29:26;;;;;;;4.85;3.22;;;7.70;45.10;;;;;;5074762;28;20032;-87
2021/04/09 09:32:00;;;;;;;6.15;3.58;;;7.80;45.70;;;;;;5075877;28;20020;-87
2021/04/09 09:34:31;;;;;;;8.38;3.72;;;7.70;44.80;;;;;;5075611;28;20020;-87
2021/04/09 09:37:11;;;;;;;7.13;4.18;;;7.80;45.10;;;;;;5075752;28;20077;-87
2021/04/09 09:39:36;;;;;;;9.18;4.03;;;7.90;45.30;;;;;;5076508;28;20112;-86
2021/04/09 09:42:04;;;;;;;8.85;4.03;;;7.90;45.60;;;;;;5095568;28;20436;-86
2021/04/09 09:44:39;;;;;;;8.27;3.97;;;8.10;45.80;;;;;;5069359;28;20076;-88
2021/04/09 09:47:17;;;;;;;6.03;4.13;;;8.00;45.00;;;;;;5077145;28;20040;-87
2021/04/09 09:50:13;;;;;;;5.20;3.10;;;8.10;45.10;;;;;;5094239;28;20376;-88
2021/04/09 09:53:00;;;;;;;5.03;2.95;;;8.30;45.80;;;;;;5077001;28;20081;-87
2021/04/09 09:55:35;;;;;;;4.95;3.22;;;8.20;44.80;;;;;;5076727;28;20027;-87
2021/04/09 09:58:14;;;;;;;3.83;2.97;;;7.90;43.90;;;;;;5076697;28;20466;-87
2021/04/09 10:01:02;;;;;;;4.80;3.80;;;8.20;45.10;;;;;;5094939;28;20043;-87
2021/04/09 10:03:32;;;;;;;4.60;3.40;;;8.50;46.60;;;;;;5076745;28;20016;-88
2021/04/09 10:05:57;;;;;;;7.43;4.00;;;8.50;44.70;;;;;;5094622;28;20036;-87
2021/04/09 10:08:25;;;;;;;6.53;3.60;;;8.60;45.00;;;;;;5076861;28;20028;-86
2021/04/09 10:11:08;;;;;;;4.68;3.75;;;8.50;44.30;;;;;;5094712;28;20393;-87
2021/04/09 10:13:42;;;;;;;6.57;3.75;;;8.40;44.20;;;;;;5076566;28;20032;-87
2021/04/09 10:16:10;;;;;;;6.45;3.40;;;8.50;44.90;;;;;;5094892;28;20032;-87
2021/04/09 10:18:37;;;;;;;8.05;3.72;;;8.70;45.60;;;;;;5094375;28;20024;-87
2021/04/09 10:21:13;;;;;;;13.70;6.32;;;8.80;45.00;;;;;;5094501;28;20030;-87
2021/04/09 10:23:38;;;;;;;5.45;3.25;;;8.70;44.00;;;;;;5076095;28;20322;-87
2021/04/09 10:26:04;;;;;;;6.03;3.90;;;8.70;44.00;;;;;;5076302;28;20074;-87
2021/04/09 10:28:34;;;;;;;4.53;3.38;;;8.60;42.70;;;;;;5094314;28;20538;-85
2021/04/09 10:31:10;;;;;;;3.65;3.30;;;8.70;43.10;;;;;;5076399;28;20423;-88
2021/04/09 10:33:37;;;;;;;9.05;3.75;;;8.70;43.70;;;;;;5093974;28;20495;-87
2021/04/09 10:36:21;;;;;;;5.47;3.45;;;8.80;44.50;;;;;;5094463;28;20036;-88
2021/04/09 10:38:50;;;;;;;4.30;3.10;;;8.90;44.10;;;;;;5094350;28;20043;-88
2021/04/09 10:41:28;;;;;;;6.28;3.60;;;9.00;44.00;;;;;;5075881;28;20481;-88
2021/04/09 10:44:05;;;;;;;7.93;3.78;;;9.00;43.30;;;;;;5094172;28;20024;-88
2021/04/09 10:46:33;;;;;;;6.40;3.58;;;9.20;43.80;;;;;;5076253;28;20496;-87
2021/04/09 10:49:01;;;;;;;7.18;3.70;;;9.30;43.70;;;;;;5075840;28;20021;-88
2021/04/09 10:51:31;;;;;;;5.75;3.53;;;9.10;42.80;;;;;;5093599;28;20048;-88
2021/04/09 10:53:57;;;;;;;6.43;4.00;;;9.00;42.70;;;;;;5075776;28;20035;-88
2021/04/09 10:56:23;;;;;;;7.70;3.95;;;9.10;42.90;;;;;;5093194;28;20032;-89
2021/04/09 10:58:49;;;;;;;6.95;3.95;;;9.30;43.20;;;;;;5080990;28;20036;-85
2021/04/09 11:01:15;;;;;;;3.88;3.47;;;9.40;43.60;;;;;;5058269;28;20024;-83
2021/04/09 11:03:41;;;;;;;5.93;3.75;;;9.50;42.50;;;;;;5073344;28;20516;-89
2021/04/09 11:06:09;;;;;;;7.88;3.90;;;9.50;42.00;;;;;;5073113;28;20048;-91
2021/04/09 11:08:40;;;;;;;4.13;3.05;;;9.50;42.10;;;;;;5055335;28;20025;-90
2021/04/09 11:11:14;;;;;;;5.63;3.33;;;9.60;42.20;;;;;;5056847;28;20026;-91
2021/04/09 11:13:42;;;;;;;5.45;3.50;;;9.70;42.20;;;;;;5055003;28;20024;-91
2021/04/09 11:16:11;;;;;;;7.85;4.60;;;9.60;41.80;;;;;;5086511;28;20034;-90
2021/04/09 11:18:54;;;;;;;5.60;3.28;;;9.80;42.50;;;;;;5075013;28;20059;-90
2021/04/09 11:21:45;;;;;;;4.97;3.15;;;9.50;42.40;;;;;;5093821;28;20042;-90
2021/04/09 11:24:14;;;;;;;4.78;3.60;;;9.70;42.70;;;;;;5058964;28;20055;-89
2021/04/09 11:26:40;;;;;;;6.75;3.20;;;9.60;42.80;;;;;;5070002;28;20035;-89
2021/04/09 11:29:06;;;;;;;7.72;3.90;;;9.60;41.50;;;;;;5053526;28;20027;-90
2021/04/09 11:31:33;;;;;;;4.97;3.10;;;9.80;42.40;;;;;;5055431;28;20021;-88
2021/04/09 11:34:09;;;;;;;7.00;4.38;;;9.80;42.40;;;;;;5088882;28;20543;-91
2021/04/09 11:36:49;;;;;;;4.32;3.10;;;9.90;42.40;;;;;;5051267;28;20044;-86
2021/04/09 11:39:19;;;;;;;5.40;3.42;;;9.90;41.80;;;;;;5071230;28;20500;-91
2021/04/09 11:41:54;;;;;;;7.15;4.68;;;10.00;42.10;;;;;;5070188;28;20088;-90
2021/04/09 11:44:36;;;;;;;17.13;8.48;;;10.00;40.90;;;;;;5053100;28;20016;-89
2021/04/09 11:47:27;;;;;;;9.75;5.18;;;10.10;41.30;;;;;;5051876;28;20017;-88
2021/04/09 11:50:06;;;;;;;7.28;4.35;;;10.10;41.10;;;;;;5066928;28;20024;-88
2021/04/09 11:52:47;;;;;;;5.32;3.72;;;9.90;40.70;;;;;;5046878;28;20394;-89
2021/04/09 11:55:14;;;;;;;6.03;3.67;;;10.20;43.00;;;;;;5070929;28;20036;-88
2021/04/09 11:57:39;;;;;;;6.97;3.53;;;10.30;42.00;;;;;;5052926;28;20466;-88
2021/04/09 12:00:16;;;;;;;7.15;4.28;;;10.30;41.60;;;;;;5053357;28;20066;-89
2021/04/09 12:02:49;;;;;;;5.63;3.97;;;10.30;41.80;;;;;;5052065;28;20025;-89
2021/04/09 12:05:19;;;;;;;9.82;4.10;;;10.40;41.60;;;;;;5071053;28;20021;-87
2021/04/09 12:07:45;;;;;;;6.75;4.45;;;10.40;41.30;;;;;;5052654;28;20022;-91
2021/04/09 12:10:11;;;;;;;7.72;3.72;;;10.40;41.20;;;;;;5051666;28;20389;-92
2021/04/09 12:12:37;;;;;;;8.60;4.53;;;10.40;41.70;;;;;;5076117;28;20491;-89
2021/04/09 12:15:03;;;;;;;5.30;3.65;;;10.30;41.20;;;;;;5059156;28;20056;-90
2021/04/09 12:17:29;;;;;;;6.60;3.78;;;10.30;41.40;;;;;;5059609;28;20073;-88
2021/04/09 12:19:55;;;;;;;4.80;3.38;;;10.40;41.50;;;;;;5058977;28;20032;-90
2021/04/09 12:22:21;;;;;;;7.07;4.15;;;10.40;41.10;;;;;;5058854;28;20040;-88
2021/04/09 12:24:46;;;;;;;5.80;4.07;;;10.20;40.00;;;;;;5060759;28;20103;-90
2021/04/09 12:27:15;;;;;;;4.28;3.55;;;10.40;40.90;;;;;;5078926;28;20107;-89
2021/04/09 12:29:40;;;;;;;7.15;3.88;;;10.40;40.70;;;;;;5064815;28;20039;-89
2021/04/09 12:32:07;;;;;;;6.38;3.70;;;10.40;40.70;;;;;;5061548;28;20028;-86
2021/04/09 12:34:33;;;;;;;7.05;3.92;;;10.60;41.70;;;;;;5065356;28;20030;-88
2021/04/09 12:37:02;;;;;;;6.90;4.18;;;10.50;40.20;;;;;;5059616;28;20130;-88
2021/04/09 12:39:28;;;;;;;44.50;20.55;;;10.40;40.10;;;;;;5044757;28;20021;-89
2021/04/09 12:41:54;;;;;;;40.92;17.50;;;10.50;40.70;;;;;;5077423;28;20024;-87
2021/04/09 12:44:20;;;;;;;13.10;6.35;;;10.40;40.30;;;;;;5098793;28;20465;-88
2021/04/09 12:46:47;;;;;;;12.70;6.25;;;10.40;40.50;;;;;;5082393;28;20028;-87
2021/04/09 12:49:18;;;;;;;34.92;12.38;;;10.50;40.80;;;;;;5060385;28;20095;-87